sensor_id;sensor_type;location;lat;lon;timestamp;pressure;altitude;pressure_sealevel;temperature;humidity
46614;BME280;32338;50.430;6.806;2023-04-09T00:02:11;65869.56;;;4.11;100.00
46614;BME280;32338;50.430;6.806;2023-04-09T00:04:39;65871.81;;;4.13;100.00
46614;BME280;32338;50.430;6.806;2023-04-09T00:07:06;65871.22;;;4.13;100.00
46614;BME280;32338;50.430;6.806;2023-04-09T00:09:32;65870.53;;;4.17;100.00
46614;BME280;32338;50.430;6.806;2023-04-09T00:11:59;65876.13;;;4.22;100.00
46614;BME280;32338;50.430;6.806;2023-04-09T00:14:26;65872.91;;;4.14;100.00
46614;BME280;32338;50.430;6.806;2023-04-09T00:16:53;65885.59;;;4.24;100.00
46614;BME280;32338;50.430;6.806;2023-04-09T00:19:19;65878.72;;;4.22;100.00
46614;BME280;32338;50.430;6.806;2023-04-09T00:21:47;65892.16;;;4.34;100.00
46614;BME280;32338;50.430;6.806;2023-04-09T00:24:14;65886.94;;;4.27;100.00
46614;BME280;32338;50.430;6.806;2023-04-09T00:26:40;65882.81;;;4.21;100.00
46614;BME280;32338;50.430;6.806;2023-04-09T00:29:07;65866.63;;;4.13;100.00
46614;BME280;32338;50.430;6.806;2023-04-09T00:31:33;65889.72;;;4.30;100.00
46614;BME280;32338;50.430;6.806;2023-04-09T00:34:00;65881.75;;;4.27;100.00
46614;BME280;32338;50.430;6.806;2023-04-09T00:36:27;65892.66;;;4.28;100.00
46614;BME280;32338;50.430;6.806;2023-04-09T00:38:54;65872.91;;;4.14;100.00
46614;BME280;32338;50.430;6.806;2023-04-09T00:41:21;65852.97;;;3.98;100.00
46614;BME280;32338;50.430;6.806;2023-04-09T00:43:48;65870.88;;;4.15;100.00
46614;BME280;32338;50.430;6.806;2023-04-09T00:46:14;65868.09;;;4.12;100.00
46614;BME280;32338;50.430;6.806;2023-04-09T00:48:42;65868.09;;;4.12;100.00
46614;BME280;32338;50.430;6.806;2023-04-09T00:51:09;65892.31;;;4.30;100.00
46614;BME280;32338;50.430;6.806;2023-04-09T00:53:35;65882.44;;;4.23;100.00
46614;BME280;32338;50.430;6.806;2023-04-09T00:56:04;65887.63;;;4.23;100.00
46614;BME280;32338;50.430;6.806;2023-04-09T00:58:32;65889.16;;;4.29;100.00
46614;BME280;32338;50.430;6.806;2023-04-09T01:00:58;65882.28;;;4.28;100.00
46614;BME280;32338;50.430;6.806;2023-04-09T01:03:25;65883.41;;;4.29;100.00
46614;BME280;32338;50.430;6.806;2023-04-09T01:05:57;65881.31;;;4.22;100.00
46614;BME280;32338;50.430;6.806;2023-04-09T01:08:31;65874.25;;;4.18;100.00
46614;BME280;32338;50.430;6.806;2023-04-09T01:11:08;65876.28;;;4.17;100.00
46614;BME280;32338;50.430;6.806;2023-04-09T01:13:47;65871.09;;;4.17;100.00
46614;BME280;32338;50.430;6.806;2023-04-09T01:16:15;65893.09;;;4.33;100.00
46614;BME280;32338;50.430;6.806;2023-04-09T01:18:55;65875.00;;;4.21;100.00
46614;BME280;32338;50.430;6.806;2023-04-09T01:21:25;65867.31;;;4.09;100.00
46614;BME280;32338;50.430;6.806;2023-04-09T01:24:01;65869.97;;;4.16;100.00
46614;BME280;32338;50.430;6.806;2023-04-09T01:26:44;65863.25;;;4.10;100.00
46614;BME280;32338;50.430;6.806;2023-04-09T01:29:19;65868.22;;;4.08;100.00
46614;BME280;32338;50.430;6.806;2023-04-09T01:31:47;65868.84;;;4.15;100.00
46614;BME280;32338;50.430;6.806;2023-04-09T01:34:15;65864.50;;;4.06;100.00
46614;BME280;32338;50.430;6.806;2023-04-09T01:36:43;65864.50;;;4.06;100.00
46614;BME280;32338;50.430;6.806;2023-04-09T01:39:11;65880.97;;;4.24;100.00
46614;BME280;32338;50.430;6.806;2023-04-09T01:41:39;65879.28;;;4.22;100.00
46614;BME280;32338;50.430;6.806;2023-04-09T01:44:06;65873.13;;;4.17;100.00
46614;BME280;32338;50.430;6.806;2023-04-09T01:46:36;65869.00;;;4.11;100.00
46614;BME280;32338;50.430;6.806;2023-04-09T01:49:04;65854.28;;;4.02;100.00
46614;BME280;32338;50.430;6.806;2023-04-09T01:51:32;65883.00;;;4.24;100.00
46614;BME280;32338;50.430;6.806;2023-04-09T01:53:59;65891.75;;;4.29;100.00
46614;BME280;32338;50.430;6.806;2023-04-09T01:56:25;65863.81;;;4.11;100.00
46614;BME280;32338;50.430;6.806;2023-04-09T01:58:52;65854.63;;;4.00;100.00
46614;BME280;32338;50.430;6.806;2023-04-09T02:01:22;65877.19;;;4.16;100.00
46614;BME280;32338;50.430;6.806;2023-04-09T02:03:53;65880.00;;;4.18;100.00
46614;BME280;32338;50.430;6.806;2023-04-09T02:06:26;65854.84;;;4.02;100.00
46614;BME280;32338;50.430;6.806;2023-04-09T02:08:57;65840.47;;;3.92;100.00
46614;BME280;32338;50.430;6.806;2023-04-09T02:11:26;65838.94;;;3.85;100.00
46614;BME280;32338;50.430;6.806;2023-04-09T02:13:55;65855.00;;;3.98;100.00
46614;BME280;32338;50.430;6.806;2023-04-09T02:16:22;65857.09;;;4.04;100.00
46614;BME280;32338;50.430;6.806;2023-04-09T02:18:54;65853.94;;;4.04;100.00
46614;BME280;32338;50.430;6.806;2023-04-09T02:21:21;65860.59;;;4.03;100.00
46614;BME280;32338;50.430;6.806;2023-04-09T02:23:48;65852.03;;;4.00;100.00
46614;BME280;32338;50.430;6.806;2023-04-09T02:26:14;65862.06;;;4.02;100.00
46614;BME280;32338;50.430;6.806;2023-04-09T02:28:41;65855.75;;;4.01;100.00
46614;BME280;32338;50.430;6.806;2023-04-09T02:31:07;65850.16;;;3.96;100.00
46614;BME280;32338;50.430;6.806;2023-04-09T02:33:35;65844.53;;;3.90;100.00
46614;BME280;32338;50.430;6.806;2023-04-09T02:36:04;65854.63;;;4.00;100.00
46614;BME280;32338;50.430;6.806;2023-04-09T02:38:31;65877.97;;;4.19;100.00
46614;BME280;32338;50.430;6.806;2023-04-09T02:40:57;65871.44;;;4.15;100.00
46614;BME280;32338;50.430;6.806;2023-04-09T02:43:24;65873.13;;;4.17;100.00
46614;BME280;32338;50.430;6.806;2023-04-09T02:45:50;65875.50;;;4.14;100.00
46614;BME280;32338;50.430;6.806;2023-04-09T02:48:17;65855.97;;;4.03;100.00
46614;BME280;32338;50.430;6.806;2023-04-09T02:50:44;65839.53;;;3.86;100.00
46614;BME280;32338;50.430;6.806;2023-04-09T02:53:12;65834.13;;;3.83;100.00
46614;BME280;32338;50.430;6.806;2023-04-09T02:55:38;65853.88;;;3.97;100.00
46614;BME280;32338;50.430;6.806;2023-04-09T02:58:05;65858.56;;;4.03;100.00
46614;BME280;32338;50.430;6.806;2023-04-09T03:00:31;65867.88;;;4.10;100.00
46614;BME280;32338;50.430;6.806;2023-04-09T03:02:58;65870.53;;;4.17;100.00
46614;BME280;32338;50.430;6.806;2023-04-09T03:05:25;65869.75;;;4.14;100.00
46614;BME280;32338;50.430;6.806;2023-04-09T03:07:52;65869.41;;;4.16;100.00
46614;BME280;32338;50.430;6.806;2023-04-09T03:10:20;65875.16;;;4.16;100.00
46614;BME280;32338;50.430;6.806;2023-04-09T03:12:47;65887.88;;;4.33;100.00
46614;BME280;32338;50.430;6.806;2023-04-09T03:15:13;65880.97;;;4.24;100.00
46614;BME280;32338;50.430;6.806;2023-04-09T03:17:40;65879.84;;;4.23;100.00
46614;BME280;32338;50.430;6.806;2023-04-09T03:20:07;65884.47;;;4.22;100.00
46614;BME280;32338;50.430;6.806;2023-04-09T03:22:35;65882.44;;;4.23;100.00
46614;BME280;32338;50.430;6.806;2023-04-09T03:25:02;65869.75;;;4.14;100.00
46614;BME280;32338;50.430;6.806;2023-04-09T03:27:31;65869.41;;;4.16;100.00
46614;BME280;32338;50.430;6.806;2023-04-09T03:29:57;65867.16;;;4.14;100.00
46614;BME280;32338;50.430;6.806;2023-04-09T03:32:24;65874.81;;;4.18;100.00
46614;BME280;32338;50.430;6.806;2023-04-09T03:34:51;65867.88;;;4.10;100.00
46614;BME280;32338;50.430;6.806;2023-04-09T03:37:17;65866.19;;;4.08;100.00
46614;BME280;32338;50.430;6.806;2023-04-09T03:39:44;65867.31;;;4.09;100.00
46614;BME280;32338;50.430;6.806;2023-04-09T03:42:10;65859.81;;;4.00;100.00
46614;BME280;32338;50.430;6.806;2023-04-09T03:44:38;65848.47;;;3.94;100.00
46614;BME280;32338;50.430;6.806;2023-04-09T03:47:06;65852.97;;;3.98;100.00
46614;BME280;32338;50.430;6.806;2023-04-09T03:49:33;65854.63;;;4.00;100.00
46614;BME280;32338;50.430;6.806;2023-04-09T03:52:00;65858.34;;;4.01;100.00
46614;BME280;32338;50.430;6.806;2023-04-09T03:54:28;65839.88;;;3.84;100.00
46614;BME280;32338;50.430;6.806;2023-04-09T03:56:54;65841.53;;;3.85;100.00
46614;BME280;32338;50.430;6.806;2023-04-09T03:59:21;65843.44;;;3.89;100.00
46614;BME280;32338;50.430;6.806;2023-04-09T04:01:49;65844.53;;;3.90;100.00
46614;BME280;32338;50.430;6.806;2023-04-09T04:04:16;65844.78;;;3.93;100.00
46614;BME280;32338;50.430;6.806;2023-04-09T04:06:42;65844.91;;;3.88;100.00
46614;BME280;32338;50.430;6.806;2023-04-09T04:09:09;65844.91;;;3.88;100.00
46614;BME280;32338;50.430;6.806;2023-04-09T04:11:35;65837.88;;;3.92;100.00
46614;BME280;32338;50.430;6.806;2023-04-09T04:14:02;65841.94;;;3.90;100.00
46614;BME280;32338;50.430;6.806;2023-04-09T04:16:29;65829.28;;;3.81;100.00
46614;BME280;32338;50.430;6.806;2023-04-09T04:18:57;65842.66;;;3.86;100.00
46614;BME280;32338;50.430;6.806;2023-04-09T04:21:24;65838.94;;;3.85;100.00
46614;BME280;32338;50.430;6.806;2023-04-09T04:23:51;65843.44;;;3.89;100.00
46614;BME280;32338;50.430;6.806;2023-04-09T04:26:18;65839.88;;;3.84;100.00
46614;BME280;32338;50.430;6.806;2023-04-09T04:28:44;65847.91;;;3.94;100.00
46614;BME280;32338;50.430;6.806;2023-04-09T04:31:11;65846.44;;;3.95;100.00
46614;BME280;32338;50.430;6.806;2023-04-09T04:33:39;65842.53;;;3.91;100.00
46614;BME280;32338;50.430;6.806;2023-04-09T04:36:10;65845.84;;;3.87;100.00
46614;BME280;32338;50.430;6.806;2023-04-09T04:38:37;65840.06;;;3.86;100.00
46614;BME280;32338;50.430;6.806;2023-04-09T04:41:05;65835.25;;;3.84;100.00
46614;BME280;32338;50.430;6.806;2023-04-09T04:43:32;65854.44;;;3.97;100.00
46614;BME280;32338;50.430;6.806;2023-04-09T04:45:59;65854.06;;;3.99;100.00
46614;BME280;32338;50.430;6.806;2023-04-09T04:48:27;65851.28;;;3.97;100.00
46614;BME280;32338;50.430;6.806;2023-04-09T04:50:54;65850.72;;;3.96;100.00
46614;BME280;32338;50.430;6.806;2023-04-09T04:53:22;65842.31;;;3.88;100.00
46614;BME280;32338;50.430;6.806;2023-04-09T04:55:49;65819.22;;;3.72;100.00
46614;BME280;32338;50.430;6.806;2023-04-09T04:58:16;65823.06;;;3.68;100.00
46614;BME280;32338;50.430;6.806;2023-04-09T05:00:43;65823.84;;;3.71;100.00
46614;BME280;32338;50.430;6.806;2023-04-09T05:03:10;65827.53;;;3.72;100.00
46614;BME280;32338;50.430;6.806;2023-04-09T05:05:36;65825.28;;;3.70;100.00
46614;BME280;32338;50.430;6.806;2023-04-09T05:08:03;65819.00;;;3.69;100.00
46614;BME280;32338;50.430;6.806;2023-04-09T05:10:31;65827.19;;;3.75;100.00
46614;BME280;32338;50.430;6.806;2023-04-09T05:12:58;65831.47;;;3.76;100.00
46614;BME280;32338;50.430;6.806;2023-04-09T05:15:25;65822.72;;;3.70;100.00
46614;BME280;32338;50.430;6.806;2023-04-09T05:17:51;65825.28;;;3.70;100.00
46614;BME280;32338;50.430;6.806;2023-04-09T05:20:18;65825.50;;;3.73;100.00
46614;BME280;32338;50.430;6.806;2023-04-09T05:22:45;65820.47;;;3.68;100.00
46614;BME280;32338;50.430;6.806;2023-04-09T05:25:11;65820.06;;;3.63;100.00
46614;BME280;32338;50.430;6.806;2023-04-09T05:27:41;65811.50;;;3.60;100.00
46614;BME280;32338;50.430;6.806;2023-04-09T05:30:08;65804.25;;;3.53;100.00
46614;BME280;32338;50.430;6.806;2023-04-09T05:32:35;65789.34;;;3.42;100.00
46614;BME280;32338;50.430;6.806;2023-04-09T05:35:02;65789.69;;;3.40;100.00
46614;BME280;32338;50.430;6.806;2023-04-09T05:37:28;65794.50;;;3.42;100.00
46614;BME280;32338;50.430;6.806;2023-04-09T05:39:55;65791.94;;;3.42;100.00
46614;BME280;32338;50.430;6.806;2023-04-09T05:42:22;65801.59;;;3.46;100.00
46614;BME280;32338;50.430;6.806;2023-04-09T05:44:50;65794.34;;;3.47;100.00
46614;BME280;32338;50.430;6.806;2023-04-09T05:47:16;65798.06;;;3.48;100.00
46614;BME280;32338;50.430;6.806;2023-04-09T05:49:43;65804.25;;;3.53;100.00
46614;BME280;32338;50.430;6.806;2023-04-09T05:52:09;65810.19;;;3.56;100.00
46614;BME280;32338;50.430;6.806;2023-04-09T05:54:36;65803.66;;;3.53;100.00
46614;BME280;32338;50.430;6.806;2023-04-09T05:57:03;65800.13;;;3.47;100.00
46614;BME280;32338;50.430;6.806;2023-04-09T05:59:29;65788.41;;;3.44;100.00
46614;BME280;32338;50.430;6.806;2023-04-09T06:01:57;65796.75;;;3.44;100.00
46614;BME280;32338;50.430;6.806;2023-04-09T06:04:24;65792.81;;;3.40;100.00
46614;BME280;32338;50.430;6.806;2023-04-09T06:06:51;65782.25;;;3.38;100.00
46614;BME280;32338;50.430;6.806;2023-04-09T06:09:17;65790.03;;;3.38;100.00
46614;BME280;32338;50.430;6.806;2023-04-09T06:11:44;65785.56;;;3.34;100.00
46614;BME280;32338;50.430;6.806;2023-04-09T06:14:10;65789.13;;;3.39;100.00
46614;BME280;32338;50.430;6.806;2023-04-09T06:16:40;65797.31;;;3.45;100.00
46614;BME280;32338;50.430;6.806;2023-04-09T06:19:08;65791.16;;;3.39;100.00
46614;BME280;32338;50.430;6.806;2023-04-09T06:21:36;65793.06;;;3.43;100.00
46614;BME280;32338;50.430;6.806;2023-04-09T06:24:03;65801.25;;;3.48;100.00
46614;BME280;32338;50.430;6.806;2023-04-09T06:26:30;65801.59;;;3.46;100.00
46614;BME280;32338;50.430;6.806;2023-04-09T06:28:56;65800.66;;;3.48;100.00
46614;BME280;32338;50.430;6.806;2023-04-09T06:31:23;65793.06;;;3.43;100.00
46614;BME280;32338;50.430;6.806;2023-04-09T06:33:50;65799.91;;;3.45;100.00
46614;BME280;32338;50.430;6.806;2023-04-09T06:36:18;65802.34;;;3.49;100.00
46614;BME280;32338;50.430;6.806;2023-04-09T06:38:45;65808.50;;;3.55;100.00
46614;BME280;32338;50.430;6.806;2023-04-09T06:41:11;65803.47;;;3.50;100.00
46614;BME280;32338;50.430;6.806;2023-04-09T06:43:39;65796.41;;;3.46;100.00
46614;BME280;32338;50.430;6.806;2023-04-09T06:46:05;65797.31;;;3.45;100.00
46614;BME280;32338;50.430;6.806;2023-04-09T06:48:32;65787.09;;;3.40;100.00
46614;BME280;32338;50.430;6.806;2023-04-09T06:50:59;65795.06;;;3.43;100.00
46614;BME280;32338;50.430;6.806;2023-04-09T06:53:27;65803.88;;;3.55;100.00
46614;BME280;32338;50.430;6.806;2023-04-09T06:55:53;65810.19;;;3.56;100.00
46614;BME280;32338;50.430;6.806;2023-04-09T06:58:20;65817.09;;;3.65;100.00
46614;BME280;32338;50.430;6.806;2023-04-09T07:00:47;65830.22;;;3.80;100.00
46614;BME280;32338;50.430;6.806;2023-04-09T07:03:13;65842.88;;;3.89;100.00
46614;BME280;32338;50.430;6.806;2023-04-09T07:05:40;65848.13;;;3.96;100.00
46614;BME280;32338;50.430;6.806;2023-04-09T07:08:07;65869.00;;;4.11;100.00
46614;BME280;32338;50.430;6.806;2023-04-09T07:10:35;65880.97;;;4.24;100.00
46614;BME280;32338;50.430;6.806;2023-04-09T07:13:01;65893.66;;;4.33;100.00
46614;BME280;32338;50.430;6.806;2023-04-09T07:15:28;65901.13;;;4.43;100.00
46614;BME280;32338;50.430;6.806;2023-04-09T07:17:55;65922.22;;;4.60;100.00
46614;BME280;32338;50.430;6.806;2023-04-09T07:20:22;65933.28;;;4.75;100.00
46614;BME280;32338;50.430;6.806;2023-04-09T07:22:48;65946.19;;;4.86;100.00
46614;BME280;32338;50.430;6.806;2023-04-09T07:25:15;65960.75;;;5.00;100.00
46614;BME280;32338;50.430;6.806;2023-04-09T07:27:43;65995.81;;;5.23;100.00
46614;BME280;32338;50.430;6.806;2023-04-09T07:30:10;66002.63;;;5.36;100.00
46614;BME280;32338;50.430;6.806;2023-04-09T07:32:37;66019.78;;;5.49;100.00
46614;BME280;32338;50.430;6.806;2023-04-09T07:35:05;66042.44;;;5.73;100.00
46614;BME280;32338;50.430;6.806;2023-04-09T07:37:34;66073.53;;;6.04;100.00
46614;BME280;32338;50.430;6.806;2023-04-09T07:40:01;66090.91;;;6.20;100.00
46614;BME280;32338;50.430;6.806;2023-04-09T07:42:28;66096.53;;;6.25;100.00
46614;BME280;32338;50.430;6.806;2023-04-09T07:44:56;66105.88;;;6.31;100.00
46614;BME280;32338;50.430;6.806;2023-04-09T07:47:23;66120.81;;;6.42;100.00
46614;BME280;32338;50.430;6.806;2023-04-09T07:49:49;66149.09;;;6.71;100.00
46614;BME280;32338;50.430;6.806;2023-04-09T07:52:16;66151.13;;;6.70;100.00
46614;BME280;32338;50.430;6.806;2023-04-09T07:54:43;66158.44;;;6.77;100.00
46614;BME280;32338;50.430;6.806;2023-04-09T07:57:10;66161.63;;;6.77;100.00
46614;BME280;32338;50.430;6.806;2023-04-09T07:59:37;66145.34;;;6.70;100.00
46614;BME280;32338;50.430;6.806;2023-04-09T08:02:05;66152.47;;;6.74;100.00
46614;BME280;32338;50.430;6.806;2023-04-09T08:04:32;66147.41;;;6.69;100.00
46614;BME280;32338;50.430;6.806;2023-04-09T08:06:59;66169.31;;;6.89;100.00
46614;BME280;32338;50.430;6.806;2023-04-09T08:09:25;66179.41;;;6.98;100.00
46614;BME280;32338;50.430;6.806;2023-04-09T08:11:52;66165.03;;;6.88;100.00
46614;BME280;32338;50.430;6.806;2023-04-09T08:14:18;66173.59;;;6.91;100.00
46614;BME280;32338;50.430;6.806;2023-04-09T08:16:45;66189.88;;;7.06;100.00
46614;BME280;32338;50.430;6.806;2023-04-09T08:19:15;66187.66;;;7.04;100.00
46614;BME280;32338;50.430;6.806;2023-04-09T08:21:43;66202.63;;;7.22;100.00
46614;BME280;32338;50.430;6.806;2023-04-09T08:24:10;66213.13;;;7.29;100.00
46614;BME280;32338;50.430;6.806;2023-04-09T08:26:37;66231.66;;;7.46;100.00
46614;BME280;32338;50.430;6.806;2023-04-09T08:29:04;66249.50;;;7.68;100.00
46614;BME280;32338;50.430;6.806;2023-04-09T08:31:31;66264.47;;;7.79;100.00
46614;BME280;32338;50.430;6.806;2023-04-09T08:33:58;66292.53;;;7.98;100.00
46614;BME280;32338;50.430;6.806;2023-04-09T08:36:26;66273.44;;;7.87;100.00
46614;BME280;32338;50.430;6.806;2023-04-09T08:38:53;66280.19;;;7.93;100.00
46614;BME280;32338;50.430;6.806;2023-04-09T08:41:23;66265.94;;;7.78;100.00
46614;BME280;32338;50.430;6.806;2023-04-09T08:43:51;66239.38;;;7.58;100.00
46614;BME280;32338;50.430;6.806;2023-04-09T08:46:18;66239.75;;;7.56;100.00
46614;BME280;32338;50.430;6.806;2023-04-09T08:48:46;66251.91;;;7.65;100.00
46614;BME280;32338;50.430;6.806;2023-04-09T08:51:13;66257.16;;;7.72;100.00
46614;BME280;32338;50.430;6.806;2023-04-09T08:53:44;66263.34;;;7.78;100.00
46614;BME280;32338;50.430;6.806;2023-04-09T08:56:12;66267.81;;;7.82;100.00
46614;BME280;32338;50.430;6.806;2023-04-09T08:58:41;66275.50;;;7.87;100.00
46614;BME280;32338;50.430;6.806;2023-04-09T09:01:18;66268.41;;;7.83;100.00
46614;BME280;32338;50.430;6.806;2023-04-09T09:03:52;66273.66;;;7.90;100.00
46614;BME280;32338;50.430;6.806;2023-04-09T09:06:20;66273.44;;;7.87;100.00
46614;BME280;32338;50.430;6.806;2023-04-09T09:08:58;66276.63;;;7.88;100.00
46614;BME280;32338;50.430;6.806;2023-04-09T09:11:25;66281.91;;;7.95;100.00
46614;BME280;32338;50.430;6.806;2023-04-09T09:13:56;66279.63;;;7.93;100.00
46614;BME280;32338;50.430;6.806;2023-04-09T09:16:23;66299.47;;;8.06;100.00
46614;BME280;32338;50.430;6.806;2023-04-09T09:18:50;66306.44;;;8.15;100.00
46614;BME280;32338;50.430;6.806;2023-04-09T09:21:17;66299.69;;;8.09;100.00
46614;BME280;32338;50.430;6.806;2023-04-09T09:23:44;66320.69;;;8.31;100.00
46614;BME280;32338;50.430;6.806;2023-04-09T09:26:15;66365.13;;;8.71;100.00
46614;BME280;32338;50.430;6.806;2023-04-09T09:28:43;66389.69;;;8.91;100.00
46614;BME280;32338;50.430;6.806;2023-04-09T09:31:10;66408.63;;;9.14;100.00
46614;BME280;32338;50.430;6.806;2023-04-09T09:33:37;66437.53;;;9.35;100.00
46614;BME280;32338;50.430;6.806;2023-04-09T09:36:04;66440.50;;;9.33;100.00
46614;BME280;32338;50.430;6.806;2023-04-09T09:38:33;66461.16;;;9.57;98.04
46614;BME280;32338;50.430;6.806;2023-04-09T09:41:18;66515.78;;;10.07;100.00
46614;BME280;32338;50.430;6.806;2023-04-09T09:43:45;66554.28;;;10.45;100.00
46614;BME280;32338;50.430;6.806;2023-04-09T09:46:11;66577.19;;;10.63;100.00
46614;BME280;32338;50.430;6.806;2023-04-09T09:48:38;66554.09;;;10.42;90.55
46614;BME280;32338;50.430;6.806;2023-04-09T09:51:08;66504.31;;;9.94;90.60
46614;BME280;32338;50.430;6.806;2023-04-09T09:53:35;66457.78;;;9.54;94.56
46614;BME280;32338;50.430;6.806;2023-04-09T09:56:04;66433.38;;;9.29;93.55
46614;BME280;32338;50.430;6.806;2023-04-09T09:58:36;66404.88;;;9.05;97.87
46614;BME280;32338;50.430;6.806;2023-04-09T10:01:06;66425.50;;;9.22;100.00
46614;BME280;32338;50.430;6.806;2023-04-09T10:03:34;66424.00;;;9.23;100.00
46614;BME280;32338;50.430;6.806;2023-04-09T10:06:02;66440.88;;;9.38;100.00
46614;BME280;32338;50.430;6.806;2023-04-09T10:08:30;66444.28;;;9.41;100.00
46614;BME280;32338;50.430;6.806;2023-04-09T10:10:59;66429.47;;;9.33;94.78
46614;BME280;32338;50.430;6.806;2023-04-09T10:13:29;66457.56;;;9.51;96.03
46614;BME280;32338;50.430;6.806;2023-04-09T10:16:00;66446.31;;;9.41;97.79
46614;BME280;32338;50.430;6.806;2023-04-09T10:18:27;66417.25;;;9.17;94.77
46614;BME280;32338;50.430;6.806;2023-04-09T10:21:02;66405.06;;;9.08;98.46
46614;BME280;32338;50.430;6.806;2023-04-09T10:23:35;66434.91;;;9.35;93.80
46614;BME280;32338;50.430;6.806;2023-04-09T10:26:03;66484.25;;;9.78;100.00
46614;BME280;32338;50.430;6.806;2023-04-09T10:28:30;66524.78;;;10.15;100.00
46614;BME280;32338;50.430;6.806;2023-04-09T10:30:57;66510.53;;;10.07;92.16
46614;BME280;32338;50.430;6.806;2023-04-09T10:33:26;66479.16;;;9.73;100.00
46614;BME280;32338;50.430;6.806;2023-04-09T10:35:53;66481.97;;;9.76;100.00
46614;BME280;32338;50.430;6.806;2023-04-09T10:38:36;66481.97;;;9.76;96.60
46614;BME280;32338;50.430;6.806;2023-04-09T10:41:07;66468.09;;;9.66;98.54
46614;BME280;32338;50.430;6.806;2023-04-09T10:43:35;66489.31;;;9.83;98.70
46614;BME280;32338;50.430;6.806;2023-04-09T10:46:03;66474.88;;;9.72;87.94
46614;BME280;32338;50.430;6.806;2023-04-09T10:48:33;66526.84;;;10.15;91.11
46614;BME280;32338;50.430;6.806;2023-04-09T10:51:01;66524.22;;;10.15;87.34
46614;BME280;32338;50.430;6.806;2023-04-09T10:53:31;66508.81;;;9.98;84.92
46614;BME280;32338;50.430;6.806;2023-04-09T10:55:57;66499.09;;;9.94;87.65
46614;BME280;32338;50.430;6.806;2023-04-09T10:58:26;66520.84;;;10.12;90.07
46614;BME280;32338;50.430;6.806;2023-04-09T11:00:52;66524.78;;;10.15;82.06
46614;BME280;32338;50.430;6.806;2023-04-09T11:03:24;66518.22;;;10.12;85.46
46614;BME280;32338;50.430;6.806;2023-04-09T11:05:58;66537.75;;;10.27;87.52
46614;BME280;32338;50.430;6.806;2023-04-09T11:08:27;66547.53;;;10.38;94.32
46614;BME280;32338;50.430;6.806;2023-04-09T11:10:55;66590.16;;;10.75;91.19
46614;BME280;32338;50.430;6.806;2023-04-09T11:13:25;66640.88;;;11.22;89.62
46614;BME280;32338;50.430;6.806;2023-04-09T11:15:53;66635.44;;;11.19;100.00
46614;BME280;32338;50.430;6.806;2023-04-09T11:18:22;66666.06;;;11.42;88.90
46614;BME280;32338;50.430;6.806;2023-04-09T11:20:49;66697.84;;;11.74;89.45
46614;BME280;32338;50.430;6.806;2023-04-09T11:23:17;66646.16;;;11.29;77.64
46614;BME280;32338;50.430;6.806;2023-04-09T11:25:48;66608.75;;;10.92;76.78
46614;BME280;32338;50.430;6.806;2023-04-09T11:28:16;66616.47;;;11.04;89.92
46614;BME280;32338;50.430;6.806;2023-04-09T11:30:42;66635.44;;;11.19;78.85
46614;BME280;32338;50.430;6.806;2023-04-09T11:33:11;66617.00;;;10.97;80.78
46614;BME280;32338;50.430;6.806;2023-04-09T11:35:38;66609.16;;;10.97;80.19
46614;BME280;32338;50.430;6.806;2023-04-09T11:38:05;66617.56;;;10.98;82.53
46614;BME280;32338;50.430;6.806;2023-04-09T11:40:33;66604.25;;;10.88;78.50
46614;BME280;32338;50.430;6.806;2023-04-09T11:43:00;66571.56;;;10.58;78.53
46614;BME280;32338;50.430;6.806;2023-04-09T11:45:29;66606.88;;;10.95;94.12
46614;BME280;32338;50.430;6.806;2023-04-09T11:47:57;66630.19;;;11.12;81.39
46614;BME280;32338;50.430;6.806;2023-04-09T11:50:24;66692.59;;;11.74;100.00
46614;BME280;32338;50.430;6.806;2023-04-09T11:52:51;66748.06;;;12.20;74.88
46614;BME280;32338;50.430;6.806;2023-04-09T11:55:24;66728.31;;;12.02;76.85
46614;BME280;32338;50.430;6.806;2023-04-09T11:57:55;66741.31;;;12.13;80.30
46614;BME280;32338;50.430;6.806;2023-04-09T12:00:22;66675.28;;;11.53;76.00
46614;BME280;32338;50.430;6.806;2023-04-09T12:02:50;66658.00;;;11.40;81.49
46614;BME280;32338;50.430;6.806;2023-04-09T12:05:21;66685.63;;;11.65;80.11
46614;BME280;32338;50.430;6.806;2023-04-09T12:07:49;66690.31;;;11.72;78.64
46614;BME280;32338;50.430;6.806;2023-04-09T12:10:16;66632.44;;;11.14;74.48
46614;BME280;32338;50.430;6.806;2023-04-09T12:12:44;66643.13;;;11.24;79.31
46614;BME280;32338;50.430;6.806;2023-04-09T12:15:22;66651.59;;;11.31;90.81
46614;BME280;32338;50.430;6.806;2023-04-09T12:17:50;66662.50;;;11.44;85.06
46614;BME280;32338;50.430;6.806;2023-04-09T12:20:28;66656.31;;;11.38;76.60
46614;BME280;32338;50.430;6.806;2023-04-09T12:22:55;66643.69;;;11.24;82.76
46614;BME280;32338;50.430;6.806;2023-04-09T12:25:22;66662.31;;;11.41;80.09
46614;BME280;32338;50.430;6.806;2023-04-09T12:27:48;66686.56;;;11.63;72.88
46614;BME280;32338;50.430;6.806;2023-04-09T12:30:15;66697.84;;;11.74;78.61
46614;BME280;32338;50.430;6.806;2023-04-09T12:32:44;66683.94;;;11.63;72.41
46614;BME280;32338;50.430;6.806;2023-04-09T12:35:11;66682.81;;;11.62;85.58
46614;BME280;32338;50.430;6.806;2023-04-09T12:37:38;66701.44;;;11.79;76.60
46614;BME280;32338;50.430;6.806;2023-04-09T12:40:06;66726.06;;;11.99;78.43
46614;BME280;32338;50.430;6.806;2023-04-09T12:42:33;66691.84;;;11.71;73.67
46614;BME280;32338;50.430;6.806;2023-04-09T12:44:59;66673.03;;;11.51;71.87
46614;BME280;32338;50.430;6.806;2023-04-09T12:47:26;66676.41;;;11.54;83.08
46614;BME280;32338;50.430;6.806;2023-04-09T12:49:54;66675.84;;;11.54;78.80
46614;BME280;32338;50.430;6.806;2023-04-09T12:52:21;66636.94;;;11.18;74.72
46614;BME280;32338;50.430;6.806;2023-04-09T12:54:49;66643.53;;;11.29;76.95
46614;BME280;32338;50.430;6.806;2023-04-09T12:57:15;66716.06;;;11.93;82.53
46614;BME280;32338;50.430;6.806;2023-04-09T12:59:42;66818.41;;;12.81;81.95
46614;BME280;32338;50.430;6.806;2023-04-09T13:02:09;66831.78;;;12.98;69.27
46614;BME280;32338;50.430;6.806;2023-04-09T13:04:35;66849.84;;;13.15;70.25